Time;durP1;ratioP1;P1;durP2;ratioP2;P2;SDS_P1;SDS_P2;PMS_P1;PMS_P2;Temp;Humidity;BMP_temperature;BMP_pressure;BME280_temperature;BME280_humidity;BME280_pressure;Samples;Min_cycle;Max_cycle;Signal;HPM_P1;HPM_P2
2021/04/17 00:00:17;;;;;;;4.30;2.10;;;7.00;67.20;;;;;;5114156;28;20028;-76
2021/04/17 00:02:43;;;;;;;2.37;1.70;;;7.00;67.70;;;;;;5095476;28;20442;-77
2021/04/17 00:05:10;;;;;;;3.00;1.73;;;6.90;67.70;;;;;;5096431;28;20110;-78
2021/04/17 00:07:36;;;;;;;2.83;1.60;;;6.90;67.70;;;;;;5095943;28;20146;-77
2021/04/17 00:10:03;;;;;;;3.23;2.00;;;6.90;67.70;;;;;;5114632;28;20055;-77
2021/04/17 00:12:29;;;;;;;3.73;1.87;;;7.00;67.50;;;;;;5113207;28;20102;-77
2021/04/17 00:14:54;;;;;;;3.47;1.80;;;7.10;67.00;;;;;;5096217;28;20126;-76
2021/04/17 00:17:21;;;;;;;3.50;2.03;;;7.10;66.90;;;;;;5113086;28;20425;-77
2021/04/17 00:19:50;;;;;;;3.83;1.77;;;7.00;67.00;;;;;;5111209;28;20503;-77
2021/04/17 00:22:15;;;;;;;2.80;2.07;;;7.10;66.60;;;;;;5095513;28;20030;-76
2021/04/17 00:24:41;;;;;;;3.20;2.00;;;7.10;66.30;;;;;;5095036;28;20372;-76
2021/04/17 00:27:07;;;;;;;4.33;2.07;;;7.00;67.00;;;;;;5095627;28;20028;-77
2021/04/17 00:29:34;;;;;;;3.77;2.40;;;6.90;66.90;;;;;;5113298;28;20450;-77
2021/04/17 00:32:02;;;;;;;4.87;2.50;;;6.80;67.30;;;;;;5113855;28;20055;-77
2021/04/17 00:34:28;;;;;;;3.87;2.37;;;6.80;67.30;;;;;;5094486;28;20120;-77
2021/04/17 00:36:54;;;;;;;2.50;1.80;;;6.80;67.50;;;;;;5113632;28;20475;-77
2021/04/17 00:39:19;;;;;;;3.73;2.00;;;6.70;68.40;;;;;;5095325;28;20023;-77
2021/04/17 00:41:45;;;;;;;3.07;1.60;;;6.70;67.90;;;;;;5095233;28;20047;-77
2021/04/17 00:44:11;;;;;;;3.63;1.90;;;6.60;68.20;;;;;;5095355;28;20376;-76
2021/04/17 00:46:36;;;;;;;3.90;2.23;;;6.60;68.50;;;;;;5094985;28;20085;-76
2021/04/17 00:49:04;;;;;;;3.50;2.13;;;6.60;68.80;;;;;;5095186;28;20047;-76
2021/04/17 00:51:30;;;;;;;2.97;2.17;;;6.60;68.90;;;;;;5094530;28;20086;-76
2021/04/17 00:53:56;;;;;;;4.40;2.30;;;6.50;69.20;;;;;;5095408;28;20081;-76
2021/04/17 00:56:22;;;;;;;5.43;1.93;;;6.50;69.30;;;;;;5095446;28;20464;-77
2021/04/17 00:58:48;;;;;;;3.27;2.10;;;6.60;69.50;;;;;;5095048;28;20093;-78
2021/04/17 01:01:14;;;;;;;2.10;1.90;;;6.60;69.30;;;;;;5095232;28;20027;-77
2021/04/17 01:04:04;;;;;;;2.97;1.93;;;6.60;69.30;;;;;;5095043;28;20115;-78
2021/04/17 01:06:51;;;;;;;3.67;2.13;;;6.60;69.40;;;;;;5094845;28;20019;-77
2021/04/17 01:09:46;;;;;;;3.47;2.10;;;6.50;69.20;;;;;;5095267;28;20024;-76
2021/04/17 01:12:23;;;;;;;2.30;1.87;;;6.50;69.40;;;;;;5094895;28;20023;-76
2021/04/17 01:14:53;;;;;;;3.77;2.27;;;6.50;69.60;;;;;;5094426;28;20070;-77
2021/04/17 01:17:20;;;;;;;5.33;2.37;;;6.40;69.70;;;;;;5095538;28;20038;-77
2021/04/17 01:20:05;;;;;;;3.77;2.30;;;6.40;69.50;;;;;;5094675;28;20503;-77
2021/04/17 01:22:31;;;;;;;3.30;2.37;;;6.40;69.60;;;;;;5094623;28;20020;-77
2021/04/17 01:25:08;;;;;;;2.70;2.10;;;6.40;70.00;;;;;;5113336;28;20084;-76
2021/04/17 01:27:35;;;;;;;3.80;2.37;;;6.40;70.50;;;;;;5094454;28;20076;-77
2021/04/17 01:30:13;;;;;;;3.87;2.23;;;6.30;70.70;;;;;;5117033;28;20099;-76
2021/04/17 01:32:39;;;;;;;4.20;2.77;;;6.30;70.50;;;;;;5116691;28;20468;-76
2021/04/17 01:35:12;;;;;;;6.60;2.73;;;6.20;70.70;;;;;;5098819;28;20034;-77
2021/04/17 01:37:53;;;;;;;4.70;2.70;;;6.30;70.50;;;;;;5116610;28;20109;-77
2021/04/17 01:40:21;;;;;;;5.37;2.70;;;6.30;70.50;;;;;;5117229;28;20475;-76
2021/04/17 01:42:47;;;;;;;5.73;3.30;;;6.20;71.00;;;;;;5115927;28;20687;-76
2021/04/17 01:45:18;;;;;;;6.87;3.10;;;6.20;70.60;;;;;;5116807;28;20031;-75
2021/04/17 01:47:45;;;;;;;4.77;2.57;;;6.20;70.60;;;;;;5097681;28;20115;-76
2021/04/17 01:50:13;;;;;;;4.57;2.63;;;6.10;70.80;;;;;;5098711;28;20019;-77
2021/04/17 01:52:42;;;;;;;5.00;2.53;;;6.10;71.00;;;;;;5098075;28;20069;-76
2021/04/17 01:55:08;;;;;;;3.20;2.33;;;6.00;71.00;;;;;;5098168;28;20038;-76
2021/04/17 01:57:36;;;;;;;3.93;2.60;;;6.00;71.00;;;;;;5098313;28;20024;-76
2021/04/17 02:00:03;;;;;;;3.97;2.50;;;6.00;71.20;;;;;;5116873;28;20076;-77
2021/04/17 02:02:29;;;;;;;3.13;2.40;;;5.90;71.10;;;;;;5098329;28;20019;-77
2021/04/17 02:04:55;;;;;;;3.63;2.30;;;5.90;71.50;;;;;;5098697;28;20028;-77
2021/04/17 02:07:21;;;;;;;3.80;2.47;;;5.80;71.50;;;;;;5098889;28;20394;-76
2021/04/17 02:09:46;;;;;;;3.13;2.20;;;5.80;71.50;;;;;;5097884;28;20225;-76
2021/04/17 02:12:12;;;;;;;2.80;2.13;;;5.80;71.70;;;;;;5098662;28;20025;-77
2021/04/17 02:14:38;;;;;;;5.20;2.80;;;5.70;71.70;;;;;;5091585;28;20030;-76
2021/04/17 02:17:17;;;;;;;5.17;2.43;;;5.60;71.90;;;;;;5098241;28;20035;-76
2021/04/17 02:20:02;;;;;;;3.97;2.50;;;5.60;72.10;;;;;;5097762;28;20023;-77
2021/04/17 02:22:29;;;;;;;3.90;2.50;;;5.60;72.10;;;;;;5097575;28;20023;-76
2021/04/17 02:24:55;;;;;;;4.10;2.30;;;5.60;72.10;;;;;;5116309;28;20031;-77
2021/04/17 02:27:22;;;;;;;3.50;2.57;;;5.50;73.00;;;;;;5098252;28;20019;-77
2021/04/17 02:29:54;;;;;;;3.83;2.13;;;5.50;72.50;;;;;;5097617;28;20055;-77
2021/04/17 02:32:21;;;;;;;3.00;2.20;;;5.40;72.80;;;;;;5116037;28;20023;-77
2021/04/17 02:34:47;;;;;;;3.37;2.50;;;5.30;73.10;;;;;;5096823;28;20078;-77
2021/04/17 02:37:12;;;;;;;5.27;2.80;;;5.20;73.60;;;;;;5097855;28;20368;-77
2021/04/17 02:39:39;;;;;;;4.53;2.83;;;5.20;73.80;;;;;;5096363;28;20031;-77
2021/04/17 02:42:05;;;;;;;4.80;3.13;;;5.10;73.80;;;;;;5096641;28;20027;-76
2021/04/17 02:44:31;;;;;;;3.73;2.67;;;5.10;74.10;;;;;;5096850;28;20020;-77
2021/04/17 02:46:56;;;;;;;4.77;2.70;;;5.00;74.30;;;;;;5097266;28;20038;-76
2021/04/17 02:49:22;;;;;;;5.60;3.00;;;5.00;74.30;;;;;;5097728;28;20049;-76
2021/04/17 02:51:48;;;;;;;3.67;2.73;;;5.00;74.40;;;;;;5096819;28;20369;-76
2021/04/17 02:54:14;;;;;;;4.13;2.70;;;5.00;74.40;;;;;;5097110;28;20028;-76
2021/04/17 02:56:40;;;;;;;3.40;2.37;;;5.00;74.40;;;;;;5096590;28;20114;-77
2021/04/17 02:59:05;;;;;;;4.10;2.47;;;5.00;74.30;;;;;;5097567;28;20119;-76
2021/04/17 03:01:31;;;;;;;3.67;2.60;;;5.00;74.30;;;;;;5114990;28;20448;-77
2021/04/17 03:03:57;;;;;;;3.43;2.60;;;4.80;74.40;;;;;;5115655;28;20341;-77
2021/04/17 03:06:22;;;;;;;3.57;2.50;;;4.90;74.30;;;;;;5096874;28;20062;-75
2021/04/17 03:08:48;;;;;;;2.87;2.33;;;4.80;74.30;;;;;;5096251;28;20035;-76
2021/04/17 03:11:13;;;;;;;4.73;2.80;;;4.70;74.60;;;;;;5096957;28;20467;-76
2021/04/17 03:13:39;;;;;;;2.90;2.30;;;4.70;74.70;;;;;;5096491;28;20054;-76
2021/04/17 03:16:06;;;;;;;3.53;2.10;;;4.60;74.90;;;;;;5097105;28;20027;-76
2021/04/17 03:18:32;;;;;;;4.33;2.33;;;4.60;74.60;;;;;;5114708;28;20024;-76
2021/04/17 03:20:58;;;;;;;3.07;2.27;;;4.70;74.50;;;;;;5096262;28;20034;-76
2021/04/17 03:23:24;;;;;;;4.80;2.57;;;4.60;74.50;;;;;;5114929;28;20038;-76
2021/04/17 03:25:50;;;;;;;3.07;2.47;;;4.60;74.80;;;;;;5095837;28;20027;-76
2021/04/17 03:28:16;;;;;;;4.00;2.60;;;4.60;74.80;;;;;;5096636;28;20027;-75
2021/04/17 03:30:42;;;;;;;3.50;2.50;;;4.50;74.90;;;;;;5095662;28;20043;-76
2021/04/17 03:33:08;;;;;;;4.90;2.80;;;4.60;74.60;;;;;;5114817;28;20059;-75
2021/04/17 03:35:33;;;;;;;4.67;2.80;;;4.60;74.60;;;;;;5095746;28;20452;-76
2021/04/17 03:38:01;;;;;;;6.47;2.83;;;4.60;74.60;;;;;;5114198;28;20035;-75
2021/04/17 03:40:28;;;;;;;3.77;2.50;;;4.60;74.60;;;;;;5096083;28;20106;-75
2021/04/17 03:42:54;;;;;;;6.87;2.70;;;4.40;75.00;;;;;;5095545;28;20020;-75
2021/04/17 03:45:20;;;;;;;3.93;2.63;;;4.30;75.40;;;;;;5095519;28;20028;-75
2021/04/17 03:47:46;;;;;;;4.13;2.70;;;4.20;76.10;;;;;;5112309;28;20035;-75
2021/04/17 03:50:13;;;;;;;8.27;2.90;;;4.20;76.00;;;;;;5095684;28;20118;-75
2021/04/17 03:52:39;;;;;;;5.57;2.60;;;4.10;76.10;;;;;;5094663;28;20044;-76
2021/04/17 03:55:08;;;;;;;6.07;2.77;;;4.10;76.20;;;;;;5095072;28;20055;-75
2021/04/17 03:57:35;;;;;;;5.00;2.73;;;4.10;75.90;;;;;;5094667;28;20044;-76
2021/04/17 04:00:02;;;;;;;4.00;2.70;;;4.10;75.80;;;;;;5095437;28;20114;-76
2021/04/17 04:02:28;;;;;;;6.07;2.77;;;4.10;75.80;;;;;;5095514;28;20024;-76
2021/04/17 04:04:54;;;;;;;6.47;3.23;;;4.10;75.80;;;;;;5112813;28;20522;-76
2021/04/17 04:07:20;;;;;;;3.87;2.60;;;4.10;75.70;;;;;;5095555;28;20034;-77
2021/04/17 04:09:46;;;;;;;6.70;3.57;;;4.10;75.60;;;;;;5112978;28;20020;-77
2021/04/17 04:12:11;;;;;;;4.07;2.97;;;4.20;75.60;;;;;;5095392;28;20392;-76
2021/04/17 04:14:37;;;;;;;5.63;3.10;;;4.10;75.90;;;;;;5094706;28;20385;-76
2021/04/17 04:17:03;;;;;;;5.73;3.13;;;4.00;76.30;;;;;;5095276;28;20039;-76
2021/04/17 04:19:29;;;;;;;4.10;2.60;;;4.00;76.40;;;;;;5095432;28;20411;-76
2021/04/17 04:21:54;;;;;;;5.27;2.77;;;4.00;76.50;;;;;;5094985;28;20040;-76
2021/04/17 04:24:20;;;;;;;6.23;3.20;;;4.00;76.70;;;;;;5095616;28;20073;-76
2021/04/17 04:26:45;;;;;;;6.50;3.20;;;4.00;76.80;;;;;;5094897;28;20055;-76
2021/04/17 04:29:11;;;;;;;5.23;3.30;;;3.90;76.90;;;;;;5095063;28;20031;-76
2021/04/17 04:31:37;;;;;;;5.90;3.57;;;3.90;77.10;;;;;;5094839;28;20031;-76
2021/04/17 04:34:03;;;;;;;5.80;3.37;;;3.90;77.30;;;;;;5095371;28;20168;-75
2021/04/17 04:36:29;;;;;;;5.33;3.50;;;3.90;77.50;;;;;;5113380;28;20027;-76
2021/04/17 04:38:55;;;;;;;6.47;3.57;;;3.90;77.70;;;;;;5112576;28;20032;-76
2021/04/17 04:41:21;;;;;;;4.30;2.80;;;3.80;77.70;;;;;;5113445;28;20079;-76
2021/04/17 04:43:46;;;;;;;5.37;3.07;;;3.80;77.40;;;;;;5095016;28;20080;-76
2021/04/17 04:46:12;;;;;;;4.90;3.03;;;3.80;77.00;;;;;;5094879;28;20092;-76
2021/04/17 04:48:37;;;;;;;4.57;3.00;;;3.80;76.90;;;;;;5094355;28;20430;-76
2021/04/17 04:51:03;;;;;;;4.43;2.80;;;3.80;76.70;;;;;;5089702;28;20040;-75
2021/04/17 04:53:29;;;;;;;5.30;3.27;;;3.80;76.50;;;;;;5074323;28;20127;-76
2021/04/17 04:55:54;;;;;;;5.63;3.13;;;3.80;76.30;;;;;;5093148;28;20032;-76
2021/04/17 04:58:20;;;;;;;5.43;3.20;;;3.90;76.20;;;;;;5092618;28;20483;-76
2021/04/17 05:00:46;;;;;;;7.53;2.97;;;3.90;76.00;;;;;;5074056;28;20376;-76
2021/04/17 05:03:11;;;;;;;4.13;2.97;;;3.90;75.80;;;;;;5074070;28;20085;-75
2021/04/17 05:05:37;;;;;;;6.03;3.67;;;3.90;75.60;;;;;;5092247;28;20097;-75
2021/04/17 05:08:03;;;;;;;5.33;3.67;;;3.90;75.70;;;;;;5074455;28;20527;-75
2021/04/17 05:10:29;;;;;;;5.40;3.37;;;3.80;75.70;;;;;;5072862;28;20020;-77
2021/04/17 05:12:55;;;;;;;5.90;3.20;;;3.70;76.10;;;;;;5070518;28;20158;-76
2021/04/17 05:15:20;;;;;;;7.27;3.43;;;3.80;76.50;;;;;;5079744;28;20016;-76
2021/04/17 05:17:46;;;;;;;6.00;3.30;;;3.80;76.70;;;;;;5066929;28;20035;-76
2021/04/17 05:20:12;;;;;;;6.37;3.53;;;3.70;77.00;;;;;;5071263;28;20031;-75
2021/04/17 05:22:37;;;;;;;5.53;3.07;;;3.60;77.10;;;;;;5060258;28;20024;-76
2021/04/17 05:25:04;;;;;;;4.60;2.77;;;3.60;77.50;;;;;;5073618;28;20073;-76
2021/04/17 05:27:30;;;;;;;6.00;3.10;;;3.60;77.40;;;;;;5073644;28;20365;-76
2021/04/17 05:29:55;;;;;;;5.67;3.40;;;3.60;77.50;;;;;;5092905;28;20017;-76
2021/04/17 05:32:21;;;;;;;6.43;3.23;;;3.70;77.80;;;;;;5073986;28;20464;-76
2021/04/17 05:34:47;;;;;;;6.20;3.30;;;3.70;77.80;;;;;;5064443;28;20447;-76
2021/04/17 05:37:13;;;;;;;5.70;3.40;;;3.60;77.10;;;;;;5070236;28;20032;-76
2021/04/17 05:39:38;;;;;;;4.03;3.27;;;3.70;77.20;;;;;;5073480;28;20028;-77
2021/04/17 05:42:04;;;;;;;6.53;3.37;;;3.80;77.40;;;;;;5073906;28;20431;-75
2021/04/17 05:44:30;;;;;;;8.00;3.73;;;3.80;77.40;;;;;;5091473;28;20028;-75
2021/04/17 05:46:55;;;;;;;5.90;3.70;;;3.80;77.40;;;;;;5072312;28;20593;-75
2021/04/17 05:49:21;;;;;;;6.57;3.70;;;3.90;77.50;;;;;;5073211;28;20035;-76
2021/04/17 05:51:47;;;;;;;6.33;3.70;;;4.00;77.20;;;;;;5103165;28;20119;-76
2021/04/17 05:54:14;;;;;;;6.23;3.77;;;3.90;77.00;;;;;;5112550;28;20039;-76
2021/04/17 05:56:40;;;;;;;6.03;3.53;;;4.00;77.60;;;;;;5110100;28;20035;-76
2021/04/17 05:59:06;;;;;;;7.70;4.47;;;4.00;77.80;;;;;;5111486;28;20015;-75
2021/04/17 06:01:32;;;;;;;6.20;3.67;;;4.10;78.00;;;;;;5092676;28;20431;-75
2021/04/17 06:03:58;;;;;;;6.67;3.70;;;4.10;78.00;;;;;;5092767;28;20109;-75
2021/04/17 06:06:24;;;;;;;5.93;3.80;;;4.10;78.30;;;;;;5093169;28;20039;-75
2021/04/17 06:08:49;;;;;;;8.17;3.70;;;4.20;78.80;;;;;;5110457;28;20023;-75
2021/04/17 06:11:16;;;;;;;6.60;3.63;;;4.20;78.80;;;;;;5111571;28;20359;-72
2021/04/17 06:13:42;;;;;;;6.73;3.97;;;4.20;79.10;;;;;;5092306;28;20023;-72
2021/04/17 06:16:08;;;;;;;7.83;4.17;;;4.20;79.00;;;;;;5115236;28;20030;-73
2021/04/17 06:18:35;;;;;;;6.90;3.90;;;4.30;79.20;;;;;;5115150;28;20073;-73
2021/04/17 06:21:02;;;;;;;7.73;4.17;;;4.40;79.20;;;;;;5097143;28;20410;-74
2021/04/17 06:23:27;;;;;;;6.87;4.50;;;4.40;79.80;;;;;;5096018;28;20032;-73
2021/04/17 06:25:53;;;;;;;7.33;4.50;;;4.40;79.70;;;;;;5095939;28;20024;-73
2021/04/17 06:28:19;;;;;;;8.90;4.53;;;4.40;79.40;;;;;;5114787;28;20073;-73
2021/04/17 06:30:45;;;;;;;6.73;4.47;;;4.50;79.30;;;;;;5096221;28;20047;-73
2021/04/17 06:33:11;;;;;;;7.30;4.53;;;4.50;79.50;;;;;;5096985;28;20448;-73
2021/04/17 06:35:38;;;;;;;7.67;4.50;;;4.50;79.50;;;;;;5096443;28;20039;-74
2021/04/17 06:38:04;;;;;;;8.77;4.47;;;4.60;79.30;;;;;;5096830;28;20110;-73
2021/04/17 06:40:30;;;;;;;8.50;5.07;;;4.70;78.90;;;;;;5115425;28;20047;-73
2021/04/17 06:42:59;;;;;;;8.63;4.80;;;4.90;78.10;;;;;;5096195;28;20410;-73
2021/04/17 06:45:24;;;;;;;9.33;5.13;;;5.00;77.60;;;;;;5115263;28;20028;-73
2021/04/17 06:47:50;;;;;;;8.20;5.20;;;5.20;77.20;;;;;;5095375;28;20169;-73
2021/04/17 06:50:18;;;;;;;6.83;4.87;;;5.30;76.50;;;;;;5115341;28;20039;-73
2021/04/17 06:52:46;;;;;;;8.43;4.87;;;5.40;76.40;;;;;;5114012;28;20035;-73
2021/04/17 06:55:12;;;;;;;7.10;4.93;;;5.50;76.00;;;;;;5096814;28;20023;-73
2021/04/17 06:57:40;;;;;;;9.77;5.50;;;5.60;75.80;;;;;;5113743;28;20380;-74
2021/04/17 07:00:09;;;;;;;8.33;4.93;;;5.60;75.20;;;;;;5114735;28;20098;-73
2021/04/17 07:02:35;;;;;;;8.53;4.97;;;5.60;74.80;;;;;;5096125;28;20046;-74
2021/04/17 07:05:02;;;;;;;9.50;4.87;;;5.70;74.50;;;;;;5096494;28;20023;-73
2021/04/17 07:07:35;;;;;;;8.80;4.87;;;5.80;74.70;;;;;;5114535;28;20023;-73
2021/04/17 07:10:00;;;;;;;7.97;4.87;;;5.90;74.40;;;;;;5096645;28;20475;-73
2021/04/17 07:12:27;;;;;;;7.63;5.20;;;6.10;73.40;;;;;;5096529;28;20016;-73
2021/04/17 07:14:54;;;;;;;9.77;4.50;;;6.20;72.50;;;;;;5095248;28;20448;-73
2021/04/17 07:17:21;;;;;;;7.63;4.60;;;6.30;72.40;;;;;;5115037;28;20027;-73
2021/04/17 07:20:00;;;;;;;8.20;5.23;;;6.30;72.60;;;;;;5095442;28;20027;-73
2021/04/17 07:22:34;;;;;;;8.77;4.60;;;6.40;72.60;;;;;;5096223;28;20046;-73
2021/04/17 07:25:05;;;;;;;7.73;4.77;;;6.40;72.90;;;;;;5113905;28;20028;-73
2021/04/17 07:27:39;;;;;;;7.28;4.70;;;6.50;72.40;;;;;;5095480;28;20051;-73
2021/04/17 07:30:07;;;;;;;7.83;4.33;;;6.60;71.30;;;;;;5114124;28;20112;-73
2021/04/17 07:32:34;;;;;;;10.13;4.50;;;6.80;70.10;;;;;;5096093;28;20140;-73
2021/04/17 07:35:06;;;;;;;8.17;4.43;;;6.90;69.30;;;;;;5114078;28;20020;-73
2021/04/17 07:37:33;;;;;;;6.60;3.53;;;6.90;68.40;;;;;;5114391;28;20024;-73
2021/04/17 07:40:19;;;;;;;6.37;3.97;;;7.00;68.00;;;;;;5094492;28;20015;-73
2021/04/17 07:42:48;;;;;;;5.43;3.20;;;7.10;67.70;;;;;;5095106;28;20019;-73
2021/04/17 07:45:32;;;;;;;5.40;3.33;;;7.00;67.40;;;;;;5095759;28;20112;-73
2021/04/17 07:48:19;;;;;;;23.67;10.30;;;7.00;67.40;;;;;;5094686;28;20455;-73
2021/04/17 07:50:46;;;;;;;26.27;13.10;;;7.00;67.40;;;;;;5093996;28;20051;-73
2021/04/17 07:53:28;;;;;;;8.40;4.70;;;7.20;68.10;;;;;;5113818;28;20015;-73
2021/04/17 07:55:54;;;;;;;;;;;7.30;68.20;;;;;;5095379;28;20367;-73
2021/04/17 07:58:20;;;;;;;4.47;3.53;;;7.40;68.30;;;;;;5095798;28;19900;-73
2021/04/17 08:00:47;;;;;;;7.13;3.60;;;7.50;66.50;;;;;;5112993;28;20026;-73
2021/04/17 08:03:13;;;;;;;5.77;3.70;;;7.50;66.20;;;;;;5095557;28;20020;-74
2021/04/17 08:05:39;;;;;;;7.03;3.50;;;7.50;67.10;;;;;;5112970;28;20106;-74
2021/04/17 08:08:05;;;;;;;7.67;4.20;;;7.50;67.00;;;;;;5095131;28;20047;-73
2021/04/17 08:10:32;;;;;;;5.70;3.70;;;7.50;66.00;;;;;;5092985;28;20047;-74
2021/04/17 08:13:00;;;;;;;6.90;3.73;;;7.50;65.80;;;;;;5112504;28;20030;-73
2021/04/17 08:15:26;;;;;;;7.77;3.83;;;7.50;65.80;;;;;;5113473;28;20019;-73
2021/04/17 08:17:53;;;;;;;6.63;3.83;;;7.50;65.90;;;;;;5112764;28;20468;-73
2021/04/17 08:20:21;;;;;;;14.20;7.20;;;7.50;66.30;;;;;;5094756;28;20023;-73
2021/04/17 08:22:52;;;;;;;8.23;4.40;;;7.50;66.20;;;;;;5094760;28;20456;-73
2021/04/17 08:25:23;;;;;;;5.37;3.30;;;7.40;66.20;;;;;;5094905;28;20203;-73
2021/04/17 08:27:50;;;;;;;6.57;3.60;;;7.40;65.70;;;;;;5112823;28;20043;-73
2021/04/17 08:30:27;;;;;;;5.33;3.57;;;7.50;65.40;;;;;;5112769;28;20012;-73
2021/04/17 08:33:10;;;;;;;6.53;3.87;;;7.60;66.10;;;;;;5112843;28;20023;-73
2021/04/17 08:35:38;;;;;;;7.00;3.33;;;7.70;65.80;;;;;;5113283;28;20024;-73
2021/04/17 08:38:08;;;;;;;6.10;3.80;;;7.80;64.60;;;;;;5093413;28;20047;-73
2021/04/17 08:40:36;;;;;;;7.07;3.60;;;7.90;64.10;;;;;;5112409;28;20012;-73
2021/04/17 08:43:18;;;;;;;5.50;3.60;;;8.00;64.10;;;;;;5094037;28;20023;-74
2021/04/17 08:46:14;;;;;;;8.07;4.30;;;8.10;63.90;;;;;;5094067;28;20020;-74
2021/04/17 08:48:45;;;;;;;6.10;3.87;;;8.20;63.60;;;;;;5112648;28;20068;-73
2021/04/17 08:51:27;;;;;;;7.32;4.05;;;8.30;63.30;;;;;;5112363;28;20105;-73
2021/04/17 08:54:14;;;;;;;5.95;3.58;;;8.30;62.80;;;;;;5094025;28;20023;-74
2021/04/17 08:56:47;;;;;;;7.05;3.47;;;8.40;62.40;;;;;;5112684;28;20102;-74
2021/04/17 08:59:13;;;;;;;6.72;4.00;;;8.50;62.00;;;;;;5094621;28;20103;-74
2021/04/17 09:01:43;;;;;;;5.85;3.42;;;8.70;62.00;;;;;;5093735;28;20062;-74
2021/04/17 09:04:10;;;;;;;8.27;4.43;;;8.70;61.40;;;;;;5092712;28;20324;-74
2021/04/17 09:06:46;;;;;;;6.68;3.92;;;8.90;61.10;;;;;;5112842;28;20043;-74
2021/04/17 09:09:15;;;;;;;6.25;3.67;;;9.00;59.90;;;;;;5094838;28;20051;-73
2021/04/17 09:11:42;;;;;;;5.28;3.85;;;9.10;59.30;;;;;;5094514;28;20011;-74
2021/04/17 09:14:30;;;;;;;7.22;3.90;;;9.20;59.00;;;;;;5093774;28;20027;-74
2021/04/17 09:17:04;;;;;;;6.38;3.70;;;9.20;59.30;;;;;;5093651;28;20070;-74
2021/04/17 09:19:49;;;;;;;5.90;3.55;;;9.00;59.40;;;;;;5093829;28;20027;-74
2021/04/17 09:22:24;;;;;;;7.32;3.92;;;8.90;59.10;;;;;;5094120;28;20019;-74
2021/04/17 09:24:52;;;;;;;5.63;3.10;;;8.80;59.60;;;;;;5111868;28;20035;-73
2021/04/17 09:27:24;;;;;;;5.90;3.05;;;8.90;59.50;;;;;;5093979;28;20026;-74
2021/04/17 09:30:21;;;;;;;5.60;3.40;;;9.00;59.30;;;;;;5111067;28;20050;-74
2021/04/17 09:32:51;;;;;;;7.00;4.07;;;9.00;59.10;;;;;;5073368;28;20032;-74
2021/04/17 09:35:28;;;;;;;5.38;3.47;;;9.00;59.90;;;;;;5094081;28;20028;-74
2021/04/17 09:38:00;;;;;;;5.03;2.60;;;8.90;60.10;;;;;;5092613;28;20023;-74
2021/04/17 09:40:51;;;;;;;5.35;2.70;;;9.00;59.20;;;;;;5093583;28;20051;-74
2021/04/17 09:43:35;;;;;;;8.00;4.93;;;9.00;58.20;;;;;;5093450;28;20118;-74
2021/04/17 09:46:09;;;;;;;6.30;3.58;;;9.00;58.10;;;;;;5093302;28;20032;-74
2021/04/17 09:48:46;;;;;;;14.52;6.93;;;9.20;60.10;;;;;;5093812;28;20030;-74
2021/04/17 09:51:22;;;;;;;5.82;3.30;;;9.20;58.20;;;;;;5094200;28;20048;-74
2021/04/17 09:53:52;;;;;;;5.07;3.00;;;9.30;57.20;;;;;;5094951;28;20468;-75
2021/04/17 09:56:30;;;;;;;5.18;3.20;;;9.20;56.60;;;;;;5078238;28;20376;-75
2021/04/17 09:59:05;;;;;;;5.32;2.90;;;9.20;56.70;;;;;;5077002;28;20114;-74
2021/04/17 10:01:31;;;;;;;14.98;7.45;;;9.20;56.00;;;;;;5096299;28;20080;-74
2021/04/17 10:03:59;;;;;;;33.67;17.55;;;9.30;55.60;;;;;;5093800;28;20539;-74
2021/04/17 10:06:36;;;;;;;12.85;7.50;;;9.40;57.00;;;;;;5094341;28;20016;-74
2021/04/17 10:09:10;;;;;;;9.07;4.28;;;9.50;56.80;;;;;;5093470;28;20052;-74
2021/04/17 10:11:38;;;;;;;4.85;3.20;;;9.50;55.60;;;;;;5093892;28;20031;-74
2021/04/17 10:14:04;;;;;;;4.70;3.10;;;9.70;55.60;;;;;;5092958;28;20533;-74
2021/04/17 10:16:35;;;;;;;4.85;2.90;;;9.70;55.30;;;;;;5094191;28;20097;-74
2021/04/17 10:19:09;;;;;;;5.30;3.10;;;9.70;55.50;;;;;;5092858;28;20031;-74
2021/04/17 10:21:36;;;;;;;4.93;3.03;;;9.80;55.80;;;;;;5092806;28;20460;-74
2021/04/17 10:24:17;;;;;;;3.65;2.53;;;9.90;55.80;;;;;;5076534;28;20377;-74
2021/04/17 10:26:58;;;;;;;5.90;3.60;;;10.00;56.50;;;;;;5093731;28;20043;-74
2021/04/17 10:29:38;;;;;;;6.57;3.53;;;10.00;54.70;;;;;;5093719;28;20115;-74
2021/04/17 10:32:16;;;;;;;8.02;3.38;;;10.10;55.20;;;;;;5091970;28;20020;-74
2021/04/17 10:34:45;;;;;;;4.82;2.80;;;10.30;55.60;;;;;;5093048;28;20064;-74
2021/04/17 10:37:23;;;;;;;3.67;2.47;;;10.50;52.70;;;;;;5092080;28;20020;-74
2021/04/17 10:40:04;;;;;;;5.07;3.05;;;10.60;53.00;;;;;;5093046;28;20020;-75
2021/04/17 10:42:55;;;;;;;4.38;2.83;;;10.60;52.40;;;;;;5093330;28;20058;-74
2021/04/17 10:45:25;;;;;;;4.70;2.88;;;10.60;51.90;;;;;;5094236;28;20028;-74
2021/04/17 10:48:05;;;;;;;4.18;2.67;;;10.60;51.50;;;;;;5092664;28;20043;-74
2021/04/17 10:50:50;;;;;;;6.28;3.08;;;10.60;49.40;;;;;;5094152;28;20048;-74
2021/04/17 10:53:22;;;;;;;6.00;2.60;;;10.70;50.10;;;;;;5096107;28;20046;-74
2021/04/17 10:55:51;;;;;;;5.80;2.38;;;10.70;50.40;;;;;;5095908;28;20036;-74
2021/04/17 10:58:20;;;;;;;4.65;2.78;;;10.70;50.80;;;;;;5079572;28;20081;-74
2021/04/17 11:00:50;;;;;;;4.30;2.40;;;10.80;50.30;;;;;;5113374;28;20095;-74
2021/04/17 11:03:19;;;;;;;4.78;2.58;;;10.80;49.60;;;;;;5079604;28;20024;-74
2021/04/17 11:05:45;;;;;;;4.00;2.58;;;10.80;49.60;;;;;;5114405;28;20024;-74
2021/04/17 11:08:11;;;;;;;5.40;1.95;;;10.80;48.90;;;;;;5095431;28;20106;-74
2021/04/17 11:10:39;;;;;;;5.70;2.75;;;10.80;49.30;;;;;;5096754;28;20106;-74
2021/04/17 11:13:05;;;;;;;3.33;2.28;;;10.80;47.90;;;;;;5113482;28;20024;-74
2021/04/17 11:15:32;;;;;;;3.60;2.25;;;10.90;47.20;;;;;;5096262;28;20024;-74
2021/04/17 11:18:19;;;;;;;2.50;1.98;;;11.20;48.10;;;;;;5114094;28;20046;-74
2021/04/17 11:20:48;;;;;;;4.93;2.00;;;11.40;47.50;;;;;;5096763;28;20024;-74
2021/04/17 11:23:38;;;;;;;17.38;8.43;;;11.50;47.00;;;;;;5095925;28;20023;-74
2021/04/17 11:26:12;;;;;;;29.00;15.02;;;11.70;46.70;;;;;;5095728;28;20517;-74
2021/04/17 11:28:40;;;;;;;8.10;3.83;;;11.80;46.50;;;;;;5096364;28;20023;-74
2021/04/17 11:31:07;;;;;;;6.22;2.20;;;11.80;45.00;;;;;;5114215;28;20023;-74
2021/04/17 11:33:33;;;;;;;5.32;1.90;;;11.80;45.50;;;;;;5096070;28;20016;-74
2021/04/17 11:35:58;;;;;;;4.38;2.05;;;11.70;44.50;;;;;;5095379;28;20035;-75
2021/04/17 11:38:24;;;;;;;4.03;2.08;;;11.70;44.80;;;;;;5113243;28;20030;-74
2021/04/17 11:40:51;;;;;;;3.78;2.30;;;11.60;44.80;;;;;;5113863;28;20437;-75
2021/04/17 11:43:18;;;;;;;3.80;1.95;;;11.70;45.60;;;;;;5113205;28;20020;-74
2021/04/17 11:45:43;;;;;;;4.93;2.20;;;11.90;47.10;;;;;;5095133;28;20111;-74
2021/04/17 11:48:11;;;;;;;4.63;2.00;;;12.00;46.80;;;;;;5113180;28;20030;-74
2021/04/17 11:50:37;;;;;;;3.33;2.00;;;12.00;47.50;;;;;;5113423;28;20027;-74
2021/04/17 11:53:03;;;;;;;3.17;1.92;;;12.00;46.00;;;;;;5094842;28;20111;-74
2021/04/17 11:55:29;;;;;;;3.03;1.90;;;12.10;46.80;;;;;;5094998;28;20110;-74
2021/04/17 11:57:54;;;;;;;4.45;1.73;;;12.10;43.20;;;;;;5112940;28;20015;-74
2021/04/17 12:00:20;;;;;;;6.80;1.80;;;12.10;43.10;;;;;;5113174;28;20011;-74
2021/04/17 12:02:46;;;;;;;4.45;1.95;;;12.10;42.30;;;;;;5094563;28;20028;-74
2021/04/17 12:05:13;;;;;;;4.53;1.52;;;12.10;42.20;;;;;;5112421;28;20024;-74
2021/04/17 12:07:39;;;;;;;3.70;2.00;;;12.00;42.40;;;;;;5094960;28;20470;-74
2021/04/17 12:10:07;;;;;;;3.65;1.88;;;12.20;44.00;;;;;;5111904;28;20023;-74
2021/04/17 12:12:32;;;;;;;2.83;1.50;;;12.40;43.00;;;;;;5094470;28;20371;-74
2021/04/17 12:14:58;;;;;;;2.63;1.60;;;12.60;44.60;;;;;;5094358;28;20024;-74
2021/04/17 12:17:25;;;;;;;3.58;1.70;;;12.80;42.80;;;;;;5094967;28;20528;-74
2021/04/17 12:19:51;;;;;;;4.15;1.80;;;12.90;41.40;;;;;;5094720;28;20031;-74
2021/04/17 12:22:17;;;;;;;3.28;1.45;;;13.00;40.60;;;;;;5094522;28;20020;-74
2021/04/17 12:24:42;;;;;;;3.42;1.88;;;13.10;41.20;;;;;;5077788;28;20027;-74
2021/04/17 12:27:08;;;;;;;2.63;1.48;;;13.20;39.60;;;;;;5093554;28;20101;-74
2021/04/17 12:29:34;;;;;;;3.35;1.60;;;13.20;39.90;;;;;;5113692;28;20028;-74
2021/04/17 12:31:59;;;;;;;2.20;1.33;;;13.30;40.30;;;;;;5112519;28;20117;-75
2021/04/17 12:34:25;;;;;;;3.80;1.45;;;13.30;40.20;;;;;;5113251;28;20031;-74
2021/04/17 12:36:52;;;;;;;2.42;1.52;;;13.50;39.30;;;;;;5095329;28;20053;-74
2021/04/17 12:39:17;;;;;;;3.53;1.30;;;13.70;39.40;;;;;;5094406;28;20081;-74
2021/04/17 12:41:43;;;;;;;2.75;1.35;;;13.90;38.70;;;;;;5112465;28;20028;-74
2021/04/17 12:44:11;;;;;;;2.40;1.40;;;14.10;38.60;;;;;;5093814;28;20126;-75
2021/04/17 12:46:39;;;;;;;4.50;1.58;;;14.10;37.70;;;;;;5094596;28;20023;-74
2021/04/17 12:49:05;;;;;;;3.90;1.52;;;14.20;37.40;;;;;;5112815;28;20028;-74
2021/04/17 12:51:31;;;;;;;2.03;1.40;;;14.40;36.50;;;;;;5077793;28;20058;-74
2021/04/17 12:53:57;;;;;;;3.63;1.90;;;14.50;36.20;;;;;;5093888;28;20040;-75
2021/04/17 12:56:24;;;;;;;2.20;1.42;;;14.60;36.00;;;;;;5077744;28;20039;-74
2021/04/17 12:58:51;;;;;;;3.97;1.60;;;14.80;35.90;;;;;;5077591;28;20028;-74
2021/04/17 13:01:17;;;;;;;1.90;1.13;;;15.00;35.80;;;;;;5093904;28;20031;-75
2021/04/17 13:03:42;;;;;;;2.40;1.20;;;15.30;35.70;;;;;;5094123;28;20341;-75